sensor_id;sensor_type;location;lat;lon;timestamp;P1;durP1;ratioP1;P2;durP2;ratioP2
76318;SDS011;65131;48.894;8.422;2022-12-15T00:01:56;44.08;;;18.27;;
76318;SDS011;65131;48.894;8.422;2022-12-15T00:04:40;40.15;;;16.13;;
76318;SDS011;65131;48.894;8.422;2022-12-15T00:07:24;44.60;;;17.27;;
76318;SDS011;65131;48.894;8.422;2022-12-15T00:10:08;37.80;;;17.13;;
76318;SDS011;65131;48.894;8.422;2022-12-15T00:12:52;37.25;;;15.90;;
76318;SDS011;65131;48.894;8.422;2022-12-15T00:15:35;39.22;;;16.60;;
76318;SDS011;65131;48.894;8.422;2022-12-15T00:18:19;37.65;;;16.10;;
76318;SDS011;65131;48.894;8.422;2022-12-15T00:21:03;37.85;;;15.95;;
76318;SDS011;65131;48.894;8.422;2022-12-15T00:23:48;38.30;;;15.13;;
76318;SDS011;65131;48.894;8.422;2022-12-15T00:26:32;34.38;;;16.10;;
76318;SDS011;65131;48.894;8.422;2022-12-15T00:29:15;28.85;;;13.93;;
76318;SDS011;65131;48.894;8.422;2022-12-15T00:32:00;33.65;;;13.65;;
76318;SDS011;65131;48.894;8.422;2022-12-15T00:34:44;34.00;;;14.90;;
76318;SDS011;65131;48.894;8.422;2022-12-15T00:37:28;37.55;;;14.05;;
76318;SDS011;65131;48.894;8.422;2022-12-15T00:40:12;32.67;;;13.50;;
76318;SDS011;65131;48.894;8.422;2022-12-15T00:42:37;30.83;;;13.15;;
76318;SDS011;65131;48.894;8.422;2022-12-15T00:45:03;34.58;;;13.80;;
76318;SDS011;65131;48.894;8.422;2022-12-15T00:47:30;32.38;;;15.60;;
76318;SDS011;65131;48.894;8.422;2022-12-15T00:49:56;32.42;;;14.82;;
76318;SDS011;65131;48.894;8.422;2022-12-15T00:52:40;27.48;;;12.55;;
76318;SDS011;65131;48.894;8.422;2022-12-15T00:55:24;34.28;;;14.73;;
76318;SDS011;65131;48.894;8.422;2022-12-15T00:58:08;37.20;;;15.30;;
76318;SDS011;65131;48.894;8.422;2022-12-15T01:00:52;32.40;;;14.60;;
76318;SDS011;65131;48.894;8.422;2022-12-15T01:03:36;35.97;;;16.73;;
76318;SDS011;65131;48.894;8.422;2022-12-15T01:06:20;39.05;;;17.70;;
76318;SDS011;65131;48.894;8.422;2022-12-15T01:09:05;38.20;;;16.02;;
76318;SDS011;65131;48.894;8.422;2022-12-15T01:11:50;32.97;;;15.18;;
76318;SDS011;65131;48.894;8.422;2022-12-15T01:14:34;36.20;;;15.20;;
76318;SDS011;65131;48.894;8.422;2022-12-15T01:17:18;38.17;;;14.45;;
76318;SDS011;65131;48.894;8.422;2022-12-15T01:20:03;35.65;;;15.48;;
76318;SDS011;65131;48.894;8.422;2022-12-15T01:22:49;43.60;;;16.50;;
76318;SDS011;65131;48.894;8.422;2022-12-15T01:25:16;43.60;;;18.83;;
76318;SDS011;65131;48.894;8.422;2022-12-15T01:27:42;40.67;;;17.35;;
76318;SDS011;65131;48.894;8.422;2022-12-15T01:30:09;41.08;;;17.90;;
76318;SDS011;65131;48.894;8.422;2022-12-15T01:32:36;40.28;;;16.75;;
76318;SDS011;65131;48.894;8.422;2022-12-15T01:35:02;42.83;;;18.48;;
76318;SDS011;65131;48.894;8.422;2022-12-15T01:37:30;42.33;;;19.27;;
76318;SDS011;65131;48.894;8.422;2022-12-15T01:39:56;44.50;;;19.65;;
76318;SDS011;65131;48.894;8.422;2022-12-15T01:42:40;43.75;;;19.15;;
76318;SDS011;65131;48.894;8.422;2022-12-15T01:48:02;44.60;;;18.98;;
76318;SDS011;65131;48.894;8.422;2022-12-15T01:50:30;48.72;;;18.05;;
76318;SDS011;65131;48.894;8.422;2022-12-15T01:52:58;44.40;;;18.75;;
76318;SDS011;65131;48.894;8.422;2022-12-15T01:55:24;49.13;;;20.38;;
76318;SDS011;65131;48.894;8.422;2022-12-15T01:57:52;45.13;;;18.45;;
76318;SDS011;65131;48.894;8.422;2022-12-15T02:00:20;47.42;;;22.70;;
76318;SDS011;65131;48.894;8.422;2022-12-15T02:02:46;55.10;;;22.20;;
76318;SDS011;65131;48.894;8.422;2022-12-15T02:05:12;47.00;;;20.52;;
76318;SDS011;65131;48.894;8.422;2022-12-15T02:07:37;46.08;;;19.13;;
76318;SDS011;65131;48.894;8.422;2022-12-15T02:10:03;42.00;;;20.20;;
76318;SDS011;65131;48.894;8.422;2022-12-15T02:26:58;46.10;;;18.08;;
76318;SDS011;65131;48.894;8.422;2022-12-15T02:37:15;51.20;;;20.50;;
76318;SDS011;65131;48.894;8.422;2022-12-15T02:39:43;44.05;;;18.70;;
76318;SDS011;65131;48.894;8.422;2022-12-15T02:42:09;45.20;;;18.90;;
76318;SDS011;65131;48.894;8.422;2022-12-15T02:49:48;51.55;;;21.08;;
76318;SDS011;65131;48.894;8.422;2022-12-15T02:57:36;46.13;;;19.48;;
76318;SDS011;65131;48.894;8.422;2022-12-15T03:00:21;43.92;;;18.05;;
76318;SDS011;65131;48.894;8.422;2022-12-15T03:02:48;43.65;;;17.92;;
76318;SDS011;65131;48.894;8.422;2022-12-15T03:05:15;48.63;;;18.50;;
76318;SDS011;65131;48.894;8.422;2022-12-15T03:07:42;36.75;;;16.35;;
76318;SDS011;65131;48.894;8.422;2022-12-15T03:10:08;38.88;;;17.60;;
76318;SDS011;65131;48.894;8.422;2022-12-15T03:12:35;44.05;;;17.48;;
76318;SDS011;65131;48.894;8.422;2022-12-15T03:15:00;41.40;;;15.82;;
76318;SDS011;65131;48.894;8.422;2022-12-15T03:17:26;44.30;;;19.88;;
76318;SDS011;65131;48.894;8.422;2022-12-15T03:19:51;42.45;;;17.40;;
76318;SDS011;65131;48.894;8.422;2022-12-15T03:22:17;44.97;;;18.83;;
76318;SDS011;65131;48.894;8.422;2022-12-15T03:24:42;46.05;;;18.40;;
76318;SDS011;65131;48.894;8.422;2022-12-15T03:27:08;52.30;;;22.02;;
76318;SDS011;65131;48.894;8.422;2022-12-15T03:29:33;49.25;;;19.35;;
76318;SDS011;65131;48.894;8.422;2022-12-15T03:31:59;40.90;;;18.23;;
76318;SDS011;65131;48.894;8.422;2022-12-15T03:34:24;47.00;;;19.58;;
76318;SDS011;65131;48.894;8.422;2022-12-15T03:36:50;43.55;;;19.50;;
76318;SDS011;65131;48.894;8.422;2022-12-15T03:39:15;48.08;;;19.45;;
76318;SDS011;65131;48.894;8.422;2022-12-15T03:41:41;45.00;;;18.60;;
76318;SDS011;65131;48.894;8.422;2022-12-15T03:44:07;48.17;;;19.30;;
76318;SDS011;65131;48.894;8.422;2022-12-15T03:46:32;38.53;;;16.10;;
76318;SDS011;65131;48.894;8.422;2022-12-15T03:48:58;42.38;;;18.77;;
76318;SDS011;65131;48.894;8.422;2022-12-15T03:51:23;44.00;;;17.80;;
76318;SDS011;65131;48.894;8.422;2022-12-15T03:53:49;46.03;;;18.00;;
76318;SDS011;65131;48.894;8.422;2022-12-15T03:56:15;41.55;;;18.13;;
76318;SDS011;65131;48.894;8.422;2022-12-15T03:58:41;42.10;;;18.77;;
76318;SDS011;65131;48.894;8.422;2022-12-15T04:03:36;42.78;;;18.67;;
76318;SDS011;65131;48.894;8.422;2022-12-15T04:06:02;46.88;;;19.58;;
76318;SDS011;65131;48.894;8.422;2022-12-15T04:08:28;41.40;;;20.17;;
76318;SDS011;65131;48.894;8.422;2022-12-15T04:10:53;52.97;;;20.55;;
76318;SDS011;65131;48.894;8.422;2022-12-15T04:13:19;48.33;;;20.65;;
76318;SDS011;65131;48.894;8.422;2022-12-15T04:15:44;51.03;;;22.95;;
76318;SDS011;65131;48.894;8.422;2022-12-15T04:18:10;55.25;;;22.35;;
76318;SDS011;65131;48.894;8.422;2022-12-15T04:20:36;47.47;;;21.52;;
76318;SDS011;65131;48.894;8.422;2022-12-15T04:23:02;50.83;;;21.98;;
76318;SDS011;65131;48.894;8.422;2022-12-15T04:25:28;54.28;;;20.40;;
76318;SDS011;65131;48.894;8.422;2022-12-15T04:28:12;39.95;;;18.70;;
76318;SDS011;65131;48.894;8.422;2022-12-15T04:31:00;47.72;;;20.60;;
76318;SDS011;65131;48.894;8.422;2022-12-15T04:33:50;48.47;;;18.85;;
76318;SDS011;65131;48.894;8.422;2022-12-15T04:36:36;56.75;;;21.75;;
76318;SDS011;65131;48.894;8.422;2022-12-15T04:39:21;57.40;;;20.52;;
76318;SDS011;65131;48.894;8.422;2022-12-15T04:42:05;44.55;;;19.60;;
76318;SDS011;65131;48.894;8.422;2022-12-15T04:44:49;46.97;;;18.60;;
76318;SDS011;65131;48.894;8.422;2022-12-15T04:47:36;46.58;;;20.92;;
76318;SDS011;65131;48.894;8.422;2022-12-15T04:50:19;46.28;;;19.15;;
76318;SDS011;65131;48.894;8.422;2022-12-15T04:53:07;45.97;;;20.17;;
76318;SDS011;65131;48.894;8.422;2022-12-15T04:55:52;51.20;;;21.25;;
76318;SDS011;65131;48.894;8.422;2022-12-15T04:58:36;44.00;;;20.08;;
76318;SDS011;65131;48.894;8.422;2022-12-15T05:01:20;44.80;;;20.10;;
76318;SDS011;65131;48.894;8.422;2022-12-15T05:04:03;38.80;;;17.40;;
76318;SDS011;65131;48.894;8.422;2022-12-15T05:06:47;44.53;;;18.13;;
76318;SDS011;65131;48.894;8.422;2022-12-15T05:09:31;49.17;;;19.48;;
76318;SDS011;65131;48.894;8.422;2022-12-15T05:12:16;41.00;;;18.02;;
76318;SDS011;65131;48.894;8.422;2022-12-15T05:14:59;41.10;;;18.15;;
76318;SDS011;65131;48.894;8.422;2022-12-15T05:17:43;45.80;;;19.70;;
76318;SDS011;65131;48.894;8.422;2022-12-15T05:20:27;41.78;;;19.45;;
76318;SDS011;65131;48.894;8.422;2022-12-15T05:23:11;41.95;;;16.95;;
76318;SDS011;65131;48.894;8.422;2022-12-15T05:25:57;49.72;;;19.25;;
76318;SDS011;65131;48.894;8.422;2022-12-15T05:28:41;44.30;;;19.30;;
76318;SDS011;65131;48.894;8.422;2022-12-15T05:31:26;47.88;;;21.45;;
76318;SDS011;65131;48.894;8.422;2022-12-15T05:34:10;47.20;;;20.77;;
76318;SDS011;65131;48.894;8.422;2022-12-15T05:36:35;47.05;;;19.20;;
76318;SDS011;65131;48.894;8.422;2022-12-15T05:39:01;45.30;;;17.40;;
76318;SDS011;65131;48.894;8.422;2022-12-15T05:41:26;45.83;;;18.92;;
76318;SDS011;65131;48.894;8.422;2022-12-15T05:43:52;39.17;;;16.90;;
76318;SDS011;65131;48.894;8.422;2022-12-15T05:46:17;46.30;;;19.52;;
76318;SDS011;65131;48.894;8.422;2022-12-15T05:48:44;47.15;;;17.92;;
76318;SDS011;65131;48.894;8.422;2022-12-15T05:51:10;47.45;;;20.55;;
76318;SDS011;65131;48.894;8.422;2022-12-15T05:53:37;46.45;;;19.20;;
76318;SDS011;65131;48.894;8.422;2022-12-15T05:56:04;48.22;;;19.83;;
76318;SDS011;65131;48.894;8.422;2022-12-15T05:58:31;55.33;;;21.63;;
76318;SDS011;65131;48.894;8.422;2022-12-15T06:01:04;49.50;;;20.52;;
76318;SDS011;65131;48.894;8.422;2022-12-15T06:03:31;51.47;;;21.60;;
76318;SDS011;65131;48.894;8.422;2022-12-15T06:05:57;54.40;;;20.17;;
76318;SDS011;65131;48.894;8.422;2022-12-15T06:08:25;41.42;;;17.10;;
76318;SDS011;65131;48.894;8.422;2022-12-15T06:10:53;49.72;;;20.92;;
76318;SDS011;65131;48.894;8.422;2022-12-15T06:13:19;59.05;;;23.35;;
76318;SDS011;65131;48.894;8.422;2022-12-15T06:15:55;52.22;;;20.30;;
76318;SDS011;65131;48.894;8.422;2022-12-15T06:18:22;53.80;;;21.45;;
76318;SDS011;65131;48.894;8.422;2022-12-15T06:20:48;54.58;;;20.58;;
76318;SDS011;65131;48.894;8.422;2022-12-15T06:23:14;43.88;;;20.90;;
76318;SDS011;65131;48.894;8.422;2022-12-15T06:25:39;54.35;;;20.02;;
76318;SDS011;65131;48.894;8.422;2022-12-15T06:28:05;50.00;;;21.83;;
76318;SDS011;65131;48.894;8.422;2022-12-15T06:30:30;52.30;;;20.38;;
76318;SDS011;65131;48.894;8.422;2022-12-15T06:32:56;49.00;;;19.35;;
76318;SDS011;65131;48.894;8.422;2022-12-15T06:35:21;47.78;;;20.15;;
76318;SDS011;65131;48.894;8.422;2022-12-15T06:37:47;51.80;;;20.45;;
76318;SDS011;65131;48.894;8.422;2022-12-15T06:40:12;49.00;;;19.58;;
76318;SDS011;65131;48.894;8.422;2022-12-15T06:42:38;47.95;;;19.52;;
76318;SDS011;65131;48.894;8.422;2022-12-15T06:45:03;57.00;;;21.23;;
76318;SDS011;65131;48.894;8.422;2022-12-15T06:47:29;49.42;;;19.67;;
76318;SDS011;65131;48.894;8.422;2022-12-15T06:49:55;54.85;;;23.88;;
76318;SDS011;65131;48.894;8.422;2022-12-15T06:52:21;50.90;;;20.45;;
76318;SDS011;65131;48.894;8.422;2022-12-15T06:54:46;50.92;;;20.33;;
76318;SDS011;65131;48.894;8.422;2022-12-15T06:57:12;49.80;;;20.90;;
76318;SDS011;65131;48.894;8.422;2022-12-15T06:59:37;53.13;;;23.52;;
76318;SDS011;65131;48.894;8.422;2022-12-15T07:02:03;46.72;;;19.55;;
76318;SDS011;65131;48.894;8.422;2022-12-15T07:04:30;55.92;;;22.75;;
76318;SDS011;65131;48.894;8.422;2022-12-15T07:06:56;49.92;;;22.25;;
76318;SDS011;65131;48.894;8.422;2022-12-15T07:09:21;54.25;;;21.20;;
76318;SDS011;65131;48.894;8.422;2022-12-15T07:11:50;57.22;;;23.63;;
76318;SDS011;65131;48.894;8.422;2022-12-15T07:14:16;55.08;;;22.67;;
76318;SDS011;65131;48.894;8.422;2022-12-15T07:16:42;56.47;;;24.58;;
76318;SDS011;65131;48.894;8.422;2022-12-15T07:19:09;53.63;;;20.65;;
76318;SDS011;65131;48.894;8.422;2022-12-15T07:21:35;60.33;;;23.38;;
76318;SDS011;65131;48.894;8.422;2022-12-15T07:24:01;57.78;;;23.38;;
76318;SDS011;65131;48.894;8.422;2022-12-15T07:26:26;56.00;;;22.63;;
76318;SDS011;65131;48.894;8.422;2022-12-15T07:28:52;59.55;;;23.33;;
76318;SDS011;65131;48.894;8.422;2022-12-15T07:31:18;51.13;;;21.48;;
76318;SDS011;65131;48.894;8.422;2022-12-15T07:33:43;62.13;;;25.85;;
76318;SDS011;65131;48.894;8.422;2022-12-15T07:36:09;59.63;;;23.35;;
76318;SDS011;65131;48.894;8.422;2022-12-15T07:38:35;49.85;;;23.20;;
76318;SDS011;65131;48.894;8.422;2022-12-15T07:41:01;57.35;;;22.55;;
76318;SDS011;65131;48.894;8.422;2022-12-15T07:43:28;62.65;;;23.42;;
76318;SDS011;65131;48.894;8.422;2022-12-15T07:45:54;61.20;;;23.80;;
76318;SDS011;65131;48.894;8.422;2022-12-15T07:48:20;60.85;;;23.38;;
76318;SDS011;65131;48.894;8.422;2022-12-15T07:50:46;64.20;;;24.30;;
76318;SDS011;65131;48.894;8.422;2022-12-15T07:53:11;57.55;;;20.85;;
76318;SDS011;65131;48.894;8.422;2022-12-15T07:55:37;62.25;;;24.63;;
76318;SDS011;65131;48.894;8.422;2022-12-15T07:58:02;50.25;;;20.40;;
76318;SDS011;65131;48.894;8.422;2022-12-15T08:00:28;53.30;;;20.75;;
76318;SDS011;65131;48.894;8.422;2022-12-15T08:02:53;52.13;;;21.55;;
76318;SDS011;65131;48.894;8.422;2022-12-15T08:05:19;58.10;;;21.63;;
76318;SDS011;65131;48.894;8.422;2022-12-15T08:07:45;57.17;;;24.08;;
76318;SDS011;65131;48.894;8.422;2022-12-15T08:10:10;59.35;;;24.73;;
76318;SDS011;65131;48.894;8.422;2022-12-15T08:12:36;50.47;;;21.40;;
76318;SDS011;65131;48.894;8.422;2022-12-15T08:15:02;59.72;;;23.10;;
76318;SDS011;65131;48.894;8.422;2022-12-15T08:17:27;50.33;;;21.15;;
76318;SDS011;65131;48.894;8.422;2022-12-15T08:19:53;47.05;;;20.58;;
76318;SDS011;65131;48.894;8.422;2022-12-15T08:22:18;51.80;;;21.27;;
76318;SDS011;65131;48.894;8.422;2022-12-15T08:24:44;47.30;;;21.40;;
76318;SDS011;65131;48.894;8.422;2022-12-15T08:27:10;55.40;;;22.52;;
76318;SDS011;65131;48.894;8.422;2022-12-15T08:29:35;55.63;;;21.77;;
76318;SDS011;65131;48.894;8.422;2022-12-15T08:32:01;50.10;;;20.40;;
76318;SDS011;65131;48.894;8.422;2022-12-15T08:34:26;53.63;;;23.70;;
76318;SDS011;65131;48.894;8.422;2022-12-15T08:36:52;57.92;;;24.15;;
76318;SDS011;65131;48.894;8.422;2022-12-15T08:39:19;51.30;;;21.55;;
76318;SDS011;65131;48.894;8.422;2022-12-15T08:41:45;58.67;;;25.20;;
76318;SDS011;65131;48.894;8.422;2022-12-15T08:44:10;49.83;;;22.58;;
76318;SDS011;65131;48.894;8.422;2022-12-15T08:46:36;61.65;;;26.10;;
76318;SDS011;65131;48.894;8.422;2022-12-15T08:49:01;63.20;;;26.35;;
76318;SDS011;65131;48.894;8.422;2022-12-15T08:51:28;60.95;;;27.88;;
76318;SDS011;65131;48.894;8.422;2022-12-15T08:53:55;60.75;;;24.52;;
76318;SDS011;65131;48.894;8.422;2022-12-15T08:56:21;56.40;;;23.08;;
76318;SDS011;65131;48.894;8.422;2022-12-15T08:58:48;56.65;;;22.35;;
76318;SDS011;65131;48.894;8.422;2022-12-15T09:01:16;59.08;;;23.85;;
76318;SDS011;65131;48.894;8.422;2022-12-15T09:03:44;46.05;;;20.55;;
76318;SDS011;65131;48.894;8.422;2022-12-15T09:06:11;59.05;;;23.52;;
76318;SDS011;65131;48.894;8.422;2022-12-15T09:08:39;56.60;;;23.13;;
76318;SDS011;65131;48.894;8.422;2022-12-15T09:11:05;56.60;;;22.50;;
76318;SDS011;65131;48.894;8.422;2022-12-15T09:13:31;55.92;;;25.33;;
76318;SDS011;65131;48.894;8.422;2022-12-15T09:15:57;56.15;;;23.77;;
76318;SDS011;65131;48.894;8.422;2022-12-15T09:18:24;51.08;;;21.80;;
76318;SDS011;65131;48.894;8.422;2022-12-15T09:20:49;51.20;;;21.27;;
76318;SDS011;65131;48.894;8.422;2022-12-15T09:23:15;51.85;;;20.60;;
76318;SDS011;65131;48.894;8.422;2022-12-15T09:25:40;54.28;;;22.15;;
76318;SDS011;65131;48.894;8.422;2022-12-15T09:28:06;55.83;;;23.00;;
76318;SDS011;65131;48.894;8.422;2022-12-15T09:30:32;48.25;;;21.38;;
76318;SDS011;65131;48.894;8.422;2022-12-15T09:32:57;58.05;;;22.02;;
76318;SDS011;65131;48.894;8.422;2022-12-15T09:35:25;56.30;;;22.77;;
76318;SDS011;65131;48.894;8.422;2022-12-15T09:37:51;54.45;;;21.98;;
76318;SDS011;65131;48.894;8.422;2022-12-15T09:40:17;54.50;;;24.73;;
76318;SDS011;65131;48.894;8.422;2022-12-15T09:42:44;56.60;;;24.83;;
76318;SDS011;65131;48.894;8.422;2022-12-15T09:45:16;55.05;;;23.33;;
76318;SDS011;65131;48.894;8.422;2022-12-15T09:47:48;59.28;;;23.08;;
76318;SDS011;65131;48.894;8.422;2022-12-15T09:50:18;57.70;;;25.70;;
76318;SDS011;65131;48.894;8.422;2022-12-15T09:52:49;55.67;;;24.30;;
76318;SDS011;65131;48.894;8.422;2022-12-15T09:55:22;58.20;;;25.90;;
76318;SDS011;65131;48.894;8.422;2022-12-15T10:00:24;60.45;;;23.52;;
76318;SDS011;65131;48.894;8.422;2022-12-15T10:08:45;53.35;;;23.13;;
76318;SDS011;65131;48.894;8.422;2022-12-15T10:19:21;53.53;;;24.50;;
76318;SDS011;65131;48.894;8.422;2022-12-15T10:21:50;57.25;;;23.48;;
76318;SDS011;65131;48.894;8.422;2022-12-15T10:24:18;55.42;;;22.80;;
76318;SDS011;65131;48.894;8.422;2022-12-15T10:32:16;55.35;;;23.33;;
76318;SDS011;65131;48.894;8.422;2022-12-15T10:34:43;52.13;;;24.23;;
76318;SDS011;65131;48.894;8.422;2022-12-15T10:37:15;60.85;;;24.33;;
76318;SDS011;65131;48.894;8.422;2022-12-15T10:39:43;58.13;;;25.17;;
76318;SDS011;65131;48.894;8.422;2022-12-15T10:44:52;58.95;;;23.38;;
76318;SDS011;65131;48.894;8.422;2022-12-15T10:47:23;54.08;;;26.73;;
76318;SDS011;65131;48.894;8.422;2022-12-15T10:49:51;57.78;;;25.95;;
76318;SDS011;65131;48.894;8.422;2022-12-15T10:52:20;54.58;;;23.90;;
76318;SDS011;65131;48.894;8.422;2022-12-15T10:54:52;62.28;;;23.40;;
76318;SDS011;65131;48.894;8.422;2022-12-15T10:57:25;63.78;;;24.45;;
76318;SDS011;65131;48.894;8.422;2022-12-15T11:00:23;54.67;;;23.48;;
76318;SDS011;65131;48.894;8.422;2022-12-15T11:02:51;59.55;;;24.67;;
76318;SDS011;65131;48.894;8.422;2022-12-15T11:05:17;61.30;;;27.05;;
76318;SDS011;65131;48.894;8.422;2022-12-15T11:07:44;58.53;;;24.02;;
76318;SDS011;65131;48.894;8.422;2022-12-15T11:13:14;65.22;;;28.42;;
76318;SDS011;65131;48.894;8.422;2022-12-15T11:15:45;61.33;;;23.90;;
76318;SDS011;65131;48.894;8.422;2022-12-15T11:18:17;66.47;;;24.65;;
76318;SDS011;65131;48.894;8.422;2022-12-15T11:20:50;62.38;;;23.40;;
76318;SDS011;65131;48.894;8.422;2022-12-15T11:29:00;60.85;;;25.38;;
76318;SDS011;65131;48.894;8.422;2022-12-15T11:31:32;64.75;;;25.67;;
76318;SDS011;65131;48.894;8.422;2022-12-15T11:34:01;64.95;;;25.65;;
76318;SDS011;65131;48.894;8.422;2022-12-15T11:37:09;57.53;;;23.90;;
76318;SDS011;65131;48.894;8.422;2022-12-15T11:47:25;64.88;;;25.40;;
76318;SDS011;65131;48.894;8.422;2022-12-15T11:52:32;57.92;;;23.48;;
76318;SDS011;65131;48.894;8.422;2022-12-15T11:58:09;60.67;;;24.60;;
76318;SDS011;65131;48.894;8.422;2022-12-15T12:00:48;67.65;;;30.35;;
76318;SDS011;65131;48.894;8.422;2022-12-15T12:06:18;59.22;;;25.67;;
76318;SDS011;65131;48.894;8.422;2022-12-15T12:20:14;51.13;;;20.67;;
76318;SDS011;65131;48.894;8.422;2022-12-15T12:25:20;60.67;;;26.10;;
76318;SDS011;65131;48.894;8.422;2022-12-15T12:28:03;60.05;;;24.45;;
76318;SDS011;65131;48.894;8.422;2022-12-15T12:30:38;62.00;;;24.83;;
76318;SDS011;65131;48.894;8.422;2022-12-15T12:33:19;51.88;;;22.50;;
76318;SDS011;65131;48.894;8.422;2022-12-15T12:35:53;60.35;;;28.40;;
76318;SDS011;65131;48.894;8.422;2022-12-15T12:38:30;55.45;;;22.67;;
76318;SDS011;65131;48.894;8.422;2022-12-15T12:41:06;64.30;;;25.85;;
76318;SDS011;65131;48.894;8.422;2022-12-15T12:43:35;54.33;;;25.55;;
76318;SDS011;65131;48.894;8.422;2022-12-15T12:46:09;54.25;;;24.00;;
76318;SDS011;65131;48.894;8.422;2022-12-15T12:53:56;58.63;;;26.33;;
76318;SDS011;65131;48.894;8.422;2022-12-15T12:56:29;53.92;;;22.20;;
76318;SDS011;65131;48.894;8.422;2022-12-15T12:59:30;64.07;;;27.20;;
76318;SDS011;65131;48.894;8.422;2022-12-15T13:04:42;55.13;;;23.05;;
76318;SDS011;65131;48.894;8.422;2022-12-15T13:18:10;48.08;;;23.98;;
76318;SDS011;65131;48.894;8.422;2022-12-15T13:20:39;53.42;;;21.98;;
76318;SDS011;65131;48.894;8.422;2022-12-15T13:25:46;48.97;;;22.60;;
76318;SDS011;65131;48.894;8.422;2022-12-15T13:33:43;50.25;;;23.52;;
76318;SDS011;65131;48.894;8.422;2022-12-15T13:36:08;58.83;;;25.60;;
76318;SDS011;65131;48.894;8.422;2022-12-15T13:38:51;60.80;;;26.08;;
76318;SDS011;65131;48.894;8.422;2022-12-15T13:41:21;57.08;;;25.23;;
76318;SDS011;65131;48.894;8.422;2022-12-15T13:43:48;63.15;;;28.02;;
76318;SDS011;65131;48.894;8.422;2022-12-15T13:46:15;58.70;;;28.02;;
76318;SDS011;65131;48.894;8.422;2022-12-15T13:48:45;60.30;;;27.83;;
76318;SDS011;65131;48.894;8.422;2022-12-15T13:53:48;52.80;;;23.17;;
76318;SDS011;65131;48.894;8.422;2022-12-15T13:56:47;66.90;;;26.80;;
76318;SDS011;65131;48.894;8.422;2022-12-15T14:01:58;60.08;;;25.85;;
76318;SDS011;65131;48.894;8.422;2022-12-15T14:04:24;56.72;;;24.63;;
76318;SDS011;65131;48.894;8.422;2022-12-15T14:09:29;57.10;;;23.92;;
76318;SDS011;65131;48.894;8.422;2022-12-15T14:11:57;62.97;;;27.67;;
76318;SDS011;65131;48.894;8.422;2022-12-15T14:14:24;57.80;;;25.60;;
76318;SDS011;65131;48.894;8.422;2022-12-15T14:19:19;47.63;;;21.70;;
76318;SDS011;65131;48.894;8.422;2022-12-15T14:21:50;59.15;;;27.70;;
76318;SDS011;65131;48.894;8.422;2022-12-15T14:24:28;64.60;;;26.85;;
76318;SDS011;65131;48.894;8.422;2022-12-15T14:26:55;68.70;;;28.45;;
76318;SDS011;65131;48.894;8.422;2022-12-15T14:29:20;65.15;;;26.38;;
76318;SDS011;65131;48.894;8.422;2022-12-15T14:31:50;54.35;;;21.75;;
76318;SDS011;65131;48.894;8.422;2022-12-15T14:34:21;56.05;;;22.83;;
76318;SDS011;65131;48.894;8.422;2022-12-15T14:36:49;56.03;;;22.00;;
76318;SDS011;65131;48.894;8.422;2022-12-15T14:42:14;67.60;;;27.65;;
76318;SDS011;65131;48.894;8.422;2022-12-15T14:44:45;51.05;;;23.60;;
76318;SDS011;65131;48.894;8.422;2022-12-15T14:47:24;62.83;;;28.55;;
76318;SDS011;65131;48.894;8.422;2022-12-15T14:49:51;54.97;;;22.70;;
76318;SDS011;65131;48.894;8.422;2022-12-15T14:52:52;65.57;;;29.55;;
76318;SDS011;65131;48.894;8.422;2022-12-15T14:57:45;56.25;;;23.85;;
76318;SDS011;65131;48.894;8.422;2022-12-15T15:00:21;53.53;;;24.52;;
76318;SDS011;65131;48.894;8.422;2022-12-15T15:02:47;51.20;;;21.13;;
76318;SDS011;65131;48.894;8.422;2022-12-15T15:05:25;54.00;;;24.70;;
76318;SDS011;65131;48.894;8.422;2022-12-15T15:07:54;56.22;;;25.20;;
76318;SDS011;65131;48.894;8.422;2022-12-15T15:10:21;58.00;;;27.00;;
76318;SDS011;65131;48.894;8.422;2022-12-15T15:12:48;59.38;;;27.20;;
76318;SDS011;65131;48.894;8.422;2022-12-15T15:15:15;55.92;;;23.70;;
76318;SDS011;65131;48.894;8.422;2022-12-15T15:20:19;54.00;;;23.20;;
76318;SDS011;65131;48.894;8.422;2022-12-15T15:25:53;64.13;;;29.95;;
76318;SDS011;65131;48.894;8.422;2022-12-15T15:28:25;56.22;;;25.15;;
76318;SDS011;65131;48.894;8.422;2022-12-15T15:30:55;55.13;;;24.95;;
76318;SDS011;65131;48.894;8.422;2022-12-15T15:33:24;64.80;;;26.25;;
76318;SDS011;65131;48.894;8.422;2022-12-15T15:35:51;64.07;;;26.10;;
76318;SDS011;65131;48.894;8.422;2022-12-15T15:41:00;54.78;;;26.02;;
76318;SDS011;65131;48.894;8.422;2022-12-15T15:43:39;65.20;;;25.75;;
76318;SDS011;65131;48.894;8.422;2022-12-15T15:46:05;65.38;;;25.33;;
76318;SDS011;65131;48.894;8.422;2022-12-15T15:48:34;58.85;;;25.98;;
76318;SDS011;65131;48.894;8.422;2022-12-15T15:51:03;56.67;;;23.17;;
76318;SDS011;65131;48.894;8.422;2022-12-15T15:53:30;55.50;;;23.10;;
76318;SDS011;65131;48.894;8.422;2022-12-15T15:55:57;57.28;;;23.20;;
76318;SDS011;65131;48.894;8.422;2022-12-15T15:58:23;58.58;;;22.92;;
76318;SDS011;65131;48.894;8.422;2022-12-15T16:00:49;62.83;;;26.70;;
76318;SDS011;65131;48.894;8.422;2022-12-15T16:03:14;64.55;;;26.08;;
76318;SDS011;65131;48.894;8.422;2022-12-15T16:05:40;58.83;;;23.08;;
76318;SDS011;65131;48.894;8.422;2022-12-15T16:08:06;56.40;;;23.90;;
76318;SDS011;65131;48.894;8.422;2022-12-15T16:10:37;61.25;;;25.23;;
76318;SDS011;65131;48.894;8.422;2022-12-15T16:13:02;57.78;;;22.02;;
76318;SDS011;65131;48.894;8.422;2022-12-15T16:15:29;62.50;;;28.50;;
76318;SDS011;65131;48.894;8.422;2022-12-15T16:17:58;62.08;;;25.95;;
76318;SDS011;65131;48.894;8.422;2022-12-15T16:20:24;54.20;;;22.83;;
76318;SDS011;65131;48.894;8.422;2022-12-15T16:22:53;57.42;;;24.73;;
76318;SDS011;65131;48.894;8.422;2022-12-15T16:27:50;59.15;;;24.73;;
76318;SDS011;65131;48.894;8.422;2022-12-15T16:30:19;60.90;;;30.48;;
76318;SDS011;65131;48.894;8.422;2022-12-15T16:32:47;49.53;;;21.48;;
76318;SDS011;65131;48.894;8.422;2022-12-15T16:35:13;64.05;;;26.05;;
76318;SDS011;65131;48.894;8.422;2022-12-15T16:37:40;55.60;;;22.35;;
76318;SDS011;65131;48.894;8.422;2022-12-15T16:42:57;60.83;;;26.38;;
76318;SDS011;65131;48.894;8.422;2022-12-15T16:45:24;53.30;;;23.38;;
76318;SDS011;65131;48.894;8.422;2022-12-15T16:47:52;56.88;;;25.05;;
76318;SDS011;65131;48.894;8.422;2022-12-15T16:50:21;58.53;;;24.35;;
76318;SDS011;65131;48.894;8.422;2022-12-15T16:53:13;61.95;;;27.58;;
76318;SDS011;65131;48.894;8.422;2022-12-15T16:55:40;46.30;;;20.52;;
76318;SDS011;65131;48.894;8.422;2022-12-15T16:58:08;60.58;;;25.50;;
76318;SDS011;65131;48.894;8.422;2022-12-15T17:00:36;61.38;;;25.20;;
76318;SDS011;65131;48.894;8.422;2022-12-15T17:03:01;59.05;;;24.95;;
76318;SDS011;65131;48.894;8.422;2022-12-15T17:05:28;69.03;;;27.73;;
76318;SDS011;65131;48.894;8.422;2022-12-15T17:10:25;53.53;;;21.95;;
76318;SDS011;65131;48.894;8.422;2022-12-15T17:13:02;59.25;;;24.67;;
76318;SDS011;65131;48.894;8.422;2022-12-15T17:15:30;59.95;;;23.58;;
76318;SDS011;65131;48.894;8.422;2022-12-15T17:17:56;59.67;;;25.58;;
76318;SDS011;65131;48.894;8.422;2022-12-15T17:20:26;56.75;;;22.55;;
76318;SDS011;65131;48.894;8.422;2022-12-15T17:23:35;60.17;;;27.02;;